Time;durP1;ratioP1;P1;durP2;ratioP2;P2;SDS_P1;SDS_P2;PMS_P1;PMS_P2;Temp;Humidity;BMP_temperature;BMP_pressure;BME280_temperature;BME280_humidity;BME280_pressure;Samples;Min_cycle;Max_cycle;Signal;HPM_P1;HPM_P2
2021/10/04 00:02:08;;;;;;;1.27;1.17;;;;;;;;;;5033263;28;20929;-62
2021/10/04 00:04:35;;;;;;;1.50;1.40;;;;;;;;;;5033608;28;20838;-62
2021/10/04 00:07:02;;;;;;;1.50;1.10;;;;;;;;;;5033116;28;20473;-61
2021/10/04 00:09:29;;;;;;;1.40;1.30;;;;;;;;;;5033382;28;20441;-61
2021/10/04 00:11:57;;;;;;;1.60;1.30;;;;;;;;;;5033438;28;20593;-61
2021/10/04 00:14:25;;;;;;;2.27;1.93;;;;;;;;;;5033036;28;20999;-61
2021/10/04 00:16:53;;;;;;;3.60;3.03;;;;;;;;;;5033285;28;20473;-61
2021/10/04 00:19:21;;;;;;;1.33;1.23;;;;;;;;;;5033271;28;20441;-61
2021/10/04 00:21:48;;;;;;;3.07;2.43;;;;;;;;;;5033022;28;21019;-61
2021/10/04 00:24:15;;;;;;;3.10;2.10;;;;;;;;;;5035117;28;20857;-61
2021/10/04 00:26:43;;;;;;;1.60;1.20;;;;;;;;;;5037251;28;20527;-61
2021/10/04 00:29:10;;;;;;;7.47;2.87;;;;;;;;;;5037258;28;20456;-61
2021/10/04 00:31:39;;;;;;;4.00;3.00;;;;;;;;;;5037240;28;20445;-61
2021/10/04 00:34:06;;;;;;;2.03;1.73;;;;;;;;;;5037081;28;20477;-59
2021/10/04 00:36:34;;;;;;;2.90;2.60;;;;;;;;;;5037003;28;20873;-62
2021/10/04 00:39:01;;;;;;;2.00;1.80;;;;;;;;;;5037104;28;20860;-62
2021/10/04 00:41:28;;;;;;;3.47;2.40;;;;;;;;;;5037067;28;20499;-61
2021/10/04 00:43:56;;;;;;;4.27;3.00;;;;;;;;;;5036647;28;20443;-61
2021/10/04 00:46:23;;;;;;;4.60;2.63;;;;;;;;;;5036917;28;20469;-61
2021/10/04 00:48:53;;;;;;;2.97;2.37;;;;;;;;;;5036628;28;21009;-61
2021/10/04 00:51:20;;;;;;;2.07;1.80;;;;;;;;;;5036853;28;20507;-61
2021/10/04 00:53:48;;;;;;;2.30;1.83;;;;;;;;;;5036691;28;20516;-62
2021/10/04 00:56:15;;;;;;;3.53;1.90;;;;;;;;;;5036354;28;20543;-61
2021/10/04 00:58:43;;;;;;;2.93;2.00;;;;;;;;;;5036492;28;20499;-61
2021/10/04 01:01:10;;;;;;;3.10;2.10;;;;;;;;;;5036482;28;20453;-62
2021/10/04 01:03:38;;;;;;;2.80;1.30;;;;;;;;;;5036767;28;20445;-61
2021/10/04 01:06:06;;;;;;;1.80;1.50;;;;;;;;;;5036674;28;20844;-61
2021/10/04 01:08:34;;;;;;;1.70;1.60;;;;;;;;;;5036288;28;20440;-61
2021/10/04 01:11:01;;;;;;;2.67;1.40;;;;;;;;;;5036628;28;20449;-60
2021/10/04 01:13:28;;;;;;;9.23;1.60;;;;;;;;;;5036663;28;20484;-61
2021/10/04 01:15:57;;;;;;;1.50;1.33;;;;;;;;;;5036750;28;20461;-62
2021/10/04 01:18:24;;;;;;;1.73;1.30;;;;;;;;;;5036792;28;20484;-61
2021/10/04 01:20:53;;;;;;;3.60;1.20;;;;;;;;;;5037129;28;20441;-61
2021/10/04 01:23:20;;;;;;;2.10;1.70;;;;;;;;;;5036914;28;20905;-61
2021/10/04 01:25:47;;;;;;;2.23;1.50;;;;;;;;;;5037251;28;20461;-61
2021/10/04 01:28:14;;;;;;;1.30;1.20;;;;;;;;;;5037749;28;20455;-61
2021/10/04 01:30:42;;;;;;;1.73;1.47;;;;;;;;;;5037804;28;20445;-61
2021/10/04 01:33:09;;;;;;;3.17;1.60;;;;;;;;;;5037251;28;20919;-61
2021/10/04 01:35:36;;;;;;;2.33;1.70;;;;;;;;;;5035326;28;21038;-62
2021/10/04 01:38:05;;;;;;;3.80;1.90;;;;;;;;;;5035822;28;20871;-61
2021/10/04 01:40:32;;;;;;;2.33;1.40;;;;;;;;;;5036308;28;20444;-60
2021/10/04 01:43:00;;;;;;;2.60;1.97;;;;;;;;;;5036132;28;20491;-61
2021/10/04 01:45:28;;;;;;;2.00;1.80;;;;;;;;;;5036154;28;20473;-61
2021/10/04 01:47:59;;;;;;;2.93;2.00;;;;;;;;;;5035813;28;20824;-61
2021/10/04 01:50:26;;;;;;;3.33;1.37;;;;;;;;;;5036075;28;20487;-60
2021/10/04 01:52:54;;;;;;;1.60;1.20;;;;;;;;;;5035930;28;20445;-61
2021/10/04 01:55:22;;;;;;;1.80;1.47;;;;;;;;;;5036648;28;20500;-61
2021/10/04 01:57:49;;;;;;;2.13;1.50;;;;;;;;;;5036325;28;20772;-61
2021/10/04 02:00:18;;;;;;;2.37;1.30;;;;;;;;;;5035785;28;20449;-61
2021/10/04 02:02:46;;;;;;;2.87;1.47;;;;;;;;;;5036522;28;20445;-62
2021/10/04 02:05:14;;;;;;;2.37;1.67;;;;;;;;;;5035636;28;20440;-62
2021/10/04 02:07:41;;;;;;;2.00;1.30;;;;;;;;;;5035552;28;20507;-61
2021/10/04 02:10:11;;;;;;;1.50;1.30;;;;;;;;;;5035409;28;20449;-61
2021/10/04 02:12:40;;;;;;;1.40;1.27;;;;;;;;;;5035569;28;20449;-61
2021/10/04 02:15:07;;;;;;;1.57;1.30;;;;;;;;;;5035254;28;20481;-62
2021/10/04 02:17:35;;;;;;;1.80;1.50;;;;;;;;;;5035370;28;20859;-61
2021/10/04 02:20:02;;;;;;;1.60;1.50;;;;;;;;;;5035028;28;20511;-61
2021/10/04 02:22:29;;;;;;;1.60;1.40;;;;;;;;;;5035186;28;20507;-61
2021/10/04 02:24:57;;;;;;;1.80;1.17;;;;;;;;;;5034908;28;20499;-62
2021/10/04 02:27:24;;;;;;;1.70;1.20;;;;;;;;;;5035132;28;20445;-61
2021/10/04 02:29:52;;;;;;;2.60;1.40;;;;;;;;;;5035055;28;20511;-62
2021/10/04 02:32:20;;;;;;;2.03;1.60;;;;;;;;;;5035098;28;20507;-61
2021/10/04 02:34:47;;;;;;;1.73;1.37;;;;;;;;;;5034884;28;20485;-61
2021/10/04 02:37:14;;;;;;;2.60;1.40;;;;;;;;;;5034570;28;20465;-61
2021/10/04 02:39:41;;;;;;;3.40;1.37;;;;;;;;;;5034925;28;20453;-61
2021/10/04 02:42:09;;;;;;;2.87;1.87;;;;;;;;;;5034864;28;20449;-61
2021/10/04 02:44:36;;;;;;;2.90;1.20;;;;;;;;;;5034955;28;20495;-60
2021/10/04 02:47:05;;;;;;;1.47;1.37;;;;;;;;;;5034028;28;20468;-61
2021/10/04 02:49:32;;;;;;;2.33;1.27;;;;;;;;;;5035198;28;20515;-62
2021/10/04 02:51:59;;;;;;;1.70;1.33;;;;;;;;;;5034901;28;20850;-61
2021/10/04 02:54:26;;;;;;;3.20;1.50;;;;;;;;;;5035823;28;20554;-61
2021/10/04 02:56:54;;;;;;;3.03;1.50;;;;;;;;;;5058734;22;20898;-59
2021/10/04 02:59:21;;;;;;;2.30;1.20;;;;;;;;;;5034876;28;20499;-59
2021/10/04 03:01:48;;;;;;;1.43;1.33;;;;;;;;;;5034947;28;20498;-58
2021/10/04 03:04:17;;;;;;;2.70;1.53;;;;;;;;;;5034457;28;20481;-57
2021/10/04 03:06:44;;;;;;;2.13;1.10;;;;;;;;;;5034107;28;20476;-56
2021/10/04 03:09:12;;;;;;;3.73;1.47;;;;;;;;;;5034368;28;20527;-58
2021/10/04 03:11:39;;;;;;;2.50;1.30;;;;;;;;;;5033928;28;20449;-58
2021/10/04 03:14:06;;;;;;;1.63;1.10;;;;;;;;;;5034340;28;20481;-58
2021/10/04 03:16:34;;;;;;;3.43;1.20;;;;;;;;;;5034298;28;20468;-59
2021/10/04 03:19:01;;;;;;;2.17;1.80;;;;;;;;;;5034227;28;20852;-58
2021/10/04 03:21:29;;;;;;;1.77;1.20;;;;;;;;;;5033898;28;20441;-58
2021/10/04 03:23:57;;;;;;;3.43;1.40;;;;;;;;;;5033851;28;20468;-59
2021/10/04 03:26:24;;;;;;;2.07;1.23;;;;;;;;;;5033924;28;20519;-58
2021/10/04 03:28:51;;;;;;;2.10;1.30;;;;;;;;;;5033886;28;20437;-59
2021/10/04 03:31:18;;;;;;;1.63;1.50;;;;;;;;;;5033852;28;20449;-59
2021/10/04 03:33:46;;;;;;;1.67;1.30;;;;;;;;;;5033734;28;20445;-58
2021/10/04 03:36:13;;;;;;;1.93;1.37;;;;;;;;;;5033359;28;20988;-58
2021/10/04 03:38:42;;;;;;;2.50;1.43;;;;;;;;;;5033522;28;20507;-59
2021/10/04 03:41:09;;;;;;;3.00;1.27;;;;;;;;;;5033707;28;20441;-58
2021/10/04 03:43:36;;;;;;;1.67;1.27;;;;;;;;;;5033785;28;20445;-58
2021/10/04 03:46:04;;;;;;;2.23;1.30;;;;;;;;;;5033216;28;20465;-57
2021/10/04 03:48:31;;;;;;;1.50;1.20;;;;;;;;;;5034368;28;20499;-58
2021/10/04 03:50:58;;;;;;;1.57;1.23;;;;;;;;;;5033230;28;20945;-58
2021/10/04 03:53:25;;;;;;;2.20;1.83;;;;;;;;;;5033626;28;20449;-57
2021/10/04 03:55:54;;;;;;;8.50;1.33;;;;;;;;;;5033246;28;20503;-57
2021/10/04 03:58:21;;;;;;;2.93;1.40;;;;;;;;;;5033208;28;20484;-58
2021/10/04 04:00:48;;;;;;;4.97;1.53;;;;;;;;;;5034290;28;20852;-57
2021/10/04 04:03:16;;;;;;;2.17;1.53;;;;;;;;;;5033293;28;20449;-57
2021/10/04 04:08:39;;;;;;;2.20;1.57;;;;;;;;;;5111893;27;21055;-57
2021/10/04 04:11:06;;;;;;;2.67;1.93;;;;;;;;;;5111282;28;20494;-57
2021/10/04 04:13:33;;;;;;;1.60;1.50;;;;;;;;;;5111256;28;20449;-57
2021/10/04 04:16:01;;;;;;;4.00;1.63;;;;;;;;;;5110687;28;20465;-57
2021/10/04 04:18:28;;;;;;;1.97;1.27;;;;;;;;;;5110856;28;20485;-57
2021/10/04 04:20:55;;;;;;;1.43;1.33;;;;;;;;;;5111028;28;20442;-57
2021/10/04 04:23:22;;;;;;;2.70;1.47;;;;;;;;;;5111201;28;20442;-57
2021/10/04 04:25:51;;;;;;;2.10;1.20;;;;;;;;;;5110882;28;20895;-58
2021/10/04 04:28:18;;;;;;;2.50;1.77;;;;;;;;;;5110887;28;20545;-57
2021/10/04 04:30:45;;;;;;;2.73;1.50;;;;;;;;;;5110899;28;20441;-57
2021/10/04 04:33:13;;;;;;;4.90;2.23;;;;;;;;;;5110519;28;20498;-57
2021/10/04 04:35:40;;;;;;;3.40;1.53;;;;;;;;;;5110583;28;20491;-57
2021/10/04 04:38:07;;;;;;;2.87;1.73;;;;;;;;;;5111180;28;20506;-57
2021/10/04 04:40:34;;;;;;;3.07;1.57;;;;;;;;;;5111317;28;20445;-57
2021/10/04 04:43:03;;;;;;;2.23;1.27;;;;;;;;;;5110575;28;20498;-57
2021/10/04 04:45:30;;;;;;;2.70;1.60;;;;;;;;;;5110420;28;20437;-57
2021/10/04 04:47:58;;;;;;;1.20;1.10;;;;;;;;;;5110084;28;20523;-56
2021/10/04 04:50:25;;;;;;;2.03;1.10;;;;;;;;;;5110389;28;20449;-57
2021/10/04 04:52:52;;;;;;;1.97;1.40;;;;;;;;;;5110260;28;20442;-57
2021/10/04 04:55:20;;;;;;;2.43;1.10;;;;;;;;;;5110417;28;20446;-58
2021/10/04 04:57:47;;;;;;;1.50;0.87;;;;;;;;;;5110237;28;20799;-57
2021/10/04 05:00:18;;;;;;;2.80;1.23;;;;;;;;;;5110200;28;20858;-57
2021/10/04 05:02:45;;;;;;;3.33;1.70;;;;;;;;;;5110092;28;20430;-56
2021/10/04 05:05:14;;;;;;;3.20;1.50;;;;;;;;;;5109741;28;20946;-57
2021/10/04 05:07:41;;;;;;;2.83;1.70;;;;;;;;;;5110206;28;20562;-57
2021/10/04 05:10:09;;;;;;;2.33;1.40;;;;;;;;;;5110087;28;20454;-57
2021/10/04 05:12:37;;;;;;;1.60;1.27;;;;;;;;;;5114450;28;20479;-56
2021/10/04 05:15:04;;;;;;;3.10;1.33;;;;;;;;;;5111299;28;20450;-57
2021/10/04 05:17:33;;;;;;;3.53;1.30;;;;;;;;;;5112050;28;20493;-57
2021/10/04 05:20:00;;;;;;;1.60;1.00;;;;;;;;;;5096750;28;20442;-58
2021/10/04 05:22:27;;;;;;;3.10;1.33;;;;;;;;;;5096677;28;20443;-58
2021/10/04 05:24:55;;;;;;;2.60;1.20;;;;;;;;;;5096290;28;20500;-57
2021/10/04 05:27:22;;;;;;;4.37;1.80;;;;;;;;;;5096057;28;20501;-57
2021/10/04 05:29:49;;;;;;;1.90;1.20;;;;;;;;;;5096179;28;20496;-57
2021/10/04 05:32:17;;;;;;;1.80;1.10;;;;;;;;;;5095687;28;20942;-57
2021/10/04 05:34:45;;;;;;;2.30;1.00;;;;;;;;;;5095860;28;20442;-58
2021/10/04 05:37:12;;;;;;;2.43;1.30;;;;;;;;;;5095659;28;20454;-57
2021/10/04 05:39:40;;;;;;;2.73;1.47;;;;;;;;;;5095416;28;20507;-57
2021/10/04 05:42:07;;;;;;;1.40;1.20;;;;;;;;;;5096188;28;20447;-58
2021/10/04 05:44:34;;;;;;;2.40;1.23;;;;;;;;;;5095430;28;20519;-58
2021/10/04 05:47:02;;;;;;;3.53;1.80;;;;;;;;;;5094827;28;20945;-58
2021/10/04 05:49:29;;;;;;;4.40;1.43;;;;;;;;;;5095185;28;20442;-58
2021/10/04 05:51:58;;;;;;;1.93;1.40;;;;;;;;;;5095407;28;20909;-56
2021/10/04 05:54:25;;;;;;;4.00;2.00;;;;;;;;;;5095393;28;20442;-57
2021/10/04 05:56:52;;;;;;;3.90;1.40;;;;;;;;;;5095494;28;20519;-57
2021/10/04 05:59:19;;;;;;;3.43;1.80;;;;;;;;;;5095269;28;20791;-58
2021/10/04 06:01:47;;;;;;;2.03;1.77;;;;;;;;;;5095111;28;20500;-56
2021/10/04 06:04:14;;;;;;;2.60;1.63;;;;;;;;;;5095282;28;20507;-57
2021/10/04 06:06:41;;;;;;;3.23;2.13;;;;;;;;;;5095132;28;20473;-57
2021/10/04 06:09:10;;;;;;;2.83;1.57;;;;;;;;;;5094987;28;20514;-57
2021/10/04 06:11:37;;;;;;;3.50;1.80;;;;;;;;;;5094947;28;20445;-57
2021/10/04 06:14:05;;;;;;;1.40;1.30;;;;;;;;;;5094782;28;20450;-57
2021/10/04 06:16:32;;;;;;;2.13;1.47;;;;;;;;;;5095416;28;20494;-57
2021/10/04 06:18:59;;;;;;;2.23;1.70;;;;;;;;;;5094738;28;20438;-58
2021/10/04 06:21:26;;;;;;;1.83;1.27;;;;;;;;;;5095285;28;20511;-57
2021/10/04 06:23:54;;;;;;;4.17;1.90;;;;;;;;;;5094582;28;20946;-58
2021/10/04 06:26:22;;;;;;;1.30;1.20;;;;;;;;;;5094800;28;20458;-58
2021/10/04 06:28:50;;;;;;;1.87;1.43;;;;;;;;;;5095033;28;20478;-58
2021/10/04 06:31:17;;;;;;;3.30;1.63;;;;;;;;;;5094366;28;20779;-58
2021/10/04 06:33:44;;;;;;;3.10;1.70;;;;;;;;;;5094305;28;20450;-58
2021/10/04 06:36:11;;;;;;;2.80;1.30;;;;;;;;;;5094530;28;20462;-57
2021/10/04 06:38:39;;;;;;;3.40;1.30;;;;;;;;;;5094617;28;20551;-58
2021/10/04 06:41:06;;;;;;;3.57;2.00;;;;;;;;;;5094166;28;20447;-58
2021/10/04 06:43:35;;;;;;;3.60;1.67;;;;;;;;;;5094782;28;20442;-58
2021/10/04 06:46:07;;;;;;;4.03;1.87;;;;;;;;;;5094312;28;20467;-58
2021/10/04 06:48:34;;;;;;;6.33;1.50;;;;;;;;;;5094531;28;20473;-57
2021/10/04 06:51:02;;;;;;;4.40;2.07;;;;;;;;;;5094629;28;20438;-57
2021/10/04 06:53:29;;;;;;;1.77;1.40;;;;;;;;;;5094526;28;20522;-57
2021/10/04 06:55:56;;;;;;;2.80;1.70;;;;;;;;;;5094453;28;20470;-58
2021/10/04 06:58:23;;;;;;;2.23;1.50;;;;;;;;;;5094467;28;20442;-57
2021/10/04 07:00:52;;;;;;;3.70;1.57;;;;;;;;;;5094064;28;20938;-57
2021/10/04 07:03:19;;;;;;;2.63;1.60;;;;;;;;;;5094172;28;20491;-57
2021/10/04 07:05:47;;;;;;;3.10;1.70;;;;;;;;;;5094115;28;20782;-57
2021/10/04 07:08:14;;;;;;;2.50;1.33;;;;;;;;;;5093605;28;20532;-57
2021/10/04 07:10:42;;;;;;;2.00;1.37;;;;;;;;;;5094591;28;20584;-58
2021/10/04 07:13:09;;;;;;;1.93;1.40;;;;;;;;;;5094025;28;20515;-57
2021/10/04 07:15:36;;;;;;;3.40;1.70;;;;;;;;;;5093725;28;20438;-58
2021/10/04 07:18:05;;;;;;;5.40;2.00;;;;;;;;;;5093834;28;20499;-57
2021/10/04 07:20:32;;;;;;;3.53;1.30;;;;;;;;;;5094022;28;20499;-56
2021/10/04 07:23:00;;;;;;;1.93;1.30;;;;;;;;;;5094428;28;20922;-57
2021/10/04 07:25:27;;;;;;;2.50;1.20;;;;;;;;;;5093598;28;20902;-57
2021/10/04 07:27:55;;;;;;;2.10;1.60;;;;;;;;;;5093466;28;20477;-57
2021/10/04 07:30:22;;;;;;;4.43;1.77;;;;;;;;;;5093899;28;20806;-57
2021/10/04 07:32:49;;;;;;;2.40;1.70;;;;;;;;;;5093364;28;20446;-57
2021/10/04 07:35:18;;;;;;;1.97;1.30;;;;;;;;;;5093425;28;20783;-57
2021/10/04 07:37:46;;;;;;;2.97;1.67;;;;;;;;;;5093429;28;20512;-57
2021/10/04 07:40:13;;;;;;;2.03;1.17;;;;;;;;;;5093340;28;20542;-57
2021/10/04 07:42:41;;;;;;;4.60;1.50;;;;;;;;;;5093476;28;20453;-57
2021/10/04 07:45:09;;;;;;;1.63;1.47;;;;;;;;;;5093137;28;20474;-57
2021/10/04 07:47:36;;;;;;;4.47;1.57;;;;;;;;;;5093258;28;20472;-59
2021/10/04 07:50:04;;;;;;;4.60;1.67;;;;;;;;;;5093373;28;20442;-57
2021/10/04 07:52:32;;;;;;;3.37;1.40;;;;;;;;;;5093288;28;20442;-58
2021/10/04 07:55:00;;;;;;;3.20;1.20;;;;;;;;;;5093662;28;20466;-58
2021/10/04 07:57:27;;;;;;;3.00;1.53;;;;;;;;;;5093449;28;20568;-57
2021/10/04 07:59:54;;;;;;;1.97;1.17;;;;;;;;;;5092992;28;20864;-58
2021/10/04 08:02:22;;;;;;;3.00;1.30;;;;;;;;;;5093002;28;20446;-58
2021/10/04 08:04:49;;;;;;;1.57;1.20;;;;;;;;;;5093289;28;20495;-58
2021/10/04 08:07:16;;;;;;;1.50;1.30;;;;;;;;;;5093327;28;20527;-58
2021/10/04 08:09:45;;;;;;;2.70;1.77;;;;;;;;;;5093284;28;20477;-58
2021/10/04 08:12:12;;;;;;;1.80;1.13;;;;;;;;;;5093288;28;20492;-59
2021/10/04 08:14:39;;;;;;;2.77;1.70;;;;;;;;;;5092900;28;20499;-59
2021/10/04 08:17:06;;;;;;;3.70;2.43;;;;;;;;;;5092897;28;20913;-57
2021/10/04 08:19:34;;;;;;;2.20;1.30;;;;;;;;;;5092620;28;20439;-58
2021/10/04 08:22:01;;;;;;;2.57;1.80;;;;;;;;;;5092984;28;20495;-57
2021/10/04 08:24:28;;;;;;;4.97;1.50;;;;;;;;;;5093025;28;20907;-56
2021/10/04 08:26:57;;;;;;;3.93;1.87;;;;;;;;;;5092840;28;20464;-56
2021/10/04 08:29:24;;;;;;;3.87;1.90;;;;;;;;;;5093341;28;20478;-57
2021/10/04 08:31:51;;;;;;;3.03;1.23;;;;;;;;;;5093858;28;20458;-57
2021/10/04 08:34:18;;;;;;;7.33;1.97;;;;;;;;;;5092586;28;20442;-57
2021/10/04 08:36:46;;;;;;;2.43;0.90;;;;;;;;;;5092927;28;20508;-57
2021/10/04 08:39:13;;;;;;;2.30;1.53;;;;;;;;;;5092855;28;20903;-57
2021/10/04 08:41:40;;;;;;;1.60;1.10;;;;;;;;;;5092824;28;20446;-57
2021/10/04 08:44:10;;;;;;;6.07;1.63;;;;;;;;;;5092983;28;20549;-57
2021/10/04 08:46:38;;;;;;;3.80;1.00;;;;;;;;;;5092652;28;20462;-57
2021/10/04 08:49:05;;;;;;;6.13;1.70;;;;;;;;;;5095990;28;20852;-58
2021/10/04 08:51:33;;;;;;;2.67;0.97;;;;;;;;;;5093096;28;20449;-57
2021/10/04 08:54:00;;;;;;;2.07;1.00;;;;;;;;;;5094330;28;20856;-57
2021/10/04 08:56:28;;;;;;;5.40;1.20;;;;;;;;;;5095991;28;20466;-58
2021/10/04 08:58:55;;;;;;;2.47;1.37;;;;;;;;;;5096630;28;20438;-58
2021/10/04 09:01:24;;;;;;;3.43;1.50;;;;;;;;;;5096391;28;20479;-57
2021/10/04 09:03:52;;;;;;;3.63;1.37;;;;;;;;;;5096506;28;20449;-57
2021/10/04 09:06:27;;;;;;;3.97;1.10;;;;;;;;;;5096030;28;20470;-57
2021/10/04 09:08:55;;;;;;;2.00;1.40;;;;;;;;;;5096327;28;20543;-58
2021/10/04 09:11:33;;;;;;;2.90;1.73;;;;;;;;;;5096246;28;20849;-58
2021/10/04 09:14:05;;;;;;;3.50;1.50;;;;;;;;;;5096023;28;20895;-57
2021/10/04 09:16:50;;;;;;;3.47;1.27;;;;;;;;;;5095858;28;20458;-57
2021/10/04 09:19:19;;;;;;;2.43;1.17;;;;;;;;;;5096141;28;20460;-57
2021/10/04 09:22:02;;;;;;;3.97;1.50;;;;;;;;;;5095681;28;20447;-57
2021/10/04 09:24:29;;;;;;;8.03;1.27;;;;;;;;;;5096238;28;20430;-57
2021/10/04 09:26:56;;;;;;;2.10;1.40;;;;;;;;;;5095645;28;20524;-57
2021/10/04 09:29:24;;;;;;;4.10;1.67;;;;;;;;;;5095862;28;20474;-57
2021/10/04 09:31:52;;;;;;;2.73;1.33;;;;;;;;;;5095972;28;20553;-57
2021/10/04 09:34:21;;;;;;;1.33;0.90;;;;;;;;;;5095622;28;20495;-57
2021/10/04 09:36:50;;;;;;;4.97;1.60;;;;;;;;;;5095458;28;20470;-59
2021/10/04 09:39:24;;;;;;;2.80;1.07;;;;;;;;;;5095854;28;20496;-57
2021/10/04 09:42:02;;;;;;;4.53;1.70;;;;;;;;;;5095448;28;20434;-56
2021/10/04 09:44:42;;;;;;;1.27;0.90;;;;;;;;;;5095225;28;20445;-58
2021/10/04 09:47:09;;;;;;;4.70;3.00;;;;;;;;;;5095422;28;20543;-58
2021/10/04 09:49:48;;;;;;;3.53;1.73;;;;;;;;;;5095144;28;20555;-56
2021/10/04 09:52:15;;;;;;;5.87;1.80;;;;;;;;;;5095089;28;20495;-57
2021/10/04 09:54:44;;;;;;;2.17;1.43;;;;;;;;;;5095320;28;20495;-57
2021/10/04 09:57:18;;;;;;;5.17;1.83;;;;;;;;;;5095196;28;20462;-57
2021/10/04 09:59:46;;;;;;;7.87;2.07;;;;;;;;;;5095135;28;20785;-57
2021/10/04 10:02:14;;;;;;;5.57;1.80;;;;;;;;;;5095950;28;20853;-58
2021/10/04 10:04:42;;;;;;;2.60;1.90;;;;;;;;;;5095639;28;20801;-57
2021/10/04 10:07:10;;;;;;;4.90;1.60;;;;;;;;;;5094772;28;20486;-57
2021/10/04 10:09:38;;;;;;;2.60;1.30;;;;;;;;;;5094811;28;20997;-57
2021/10/04 10:12:05;;;;;;;2.50;1.30;;;;;;;;;;5095890;28;20451;-57
2021/10/04 10:14:39;;;;;;;3.73;1.30;;;;;;;;;;5095055;28;20519;-58
2021/10/04 10:17:07;;;;;;;3.37;1.43;;;;;;;;;;5094924;28;21034;-57
2021/10/04 10:19:38;;;;;;;2.27;1.77;;;;;;;;;;5095069;28;20872;-57
2021/10/04 10:22:13;;;;;;;4.00;1.47;;;;;;;;;;5095200;28;20452;-56
2021/10/04 10:24:40;;;;;;;4.13;1.43;;;;;;;;;;5094282;28;20975;-56
2021/10/04 10:27:08;;;;;;;4.70;1.40;;;;;;;;;;5094036;28;20885;-56
2021/10/04 10:29:35;;;;;;;2.93;1.30;;;;;;;;;;5094540;28;20527;-56
2021/10/04 10:32:06;;;;;;;4.67;1.70;;;;;;;;;;5094480;28;20462;-57
2021/10/04 10:34:47;;;;;;;3.83;1.60;;;;;;;;;;5094559;28;20861;-57
2021/10/04 10:37:16;;;;;;;2.97;1.57;;;;;;;;;;5094177;28;20538;-56
2021/10/04 10:39:45;;;;;;;4.00;1.23;;;;;;;;;;5094374;28;20438;-55
2021/10/04 10:42:13;;;;;;;4.10;1.20;;;;;;;;;;5094539;28;20914;-57
2021/10/04 10:44:55;;;;;;;3.30;1.60;;;;;;;;;;5094477;28;20454;-57
2021/10/04 10:47:37;;;;;;;2.80;1.17;;;;;;;;;;5093939;28;20462;-56
2021/10/04 10:50:07;;;;;;;3.87;1.37;;;;;;;;;;5094108;28;20478;-57
2021/10/04 10:52:37;;;;;;;3.43;1.23;;;;;;;;;;5094234;28;20893;-57
2021/10/04 10:55:24;;;;;;;1.60;1.10;;;;;;;;;;5094801;28;20450;-57
2021/10/04 10:58:01;;;;;;;2.30;1.07;;;;;;;;;;5094138;28;20462;-57
2021/10/04 11:00:29;;;;;;;2.63;1.10;;;;;;;;;;5093762;28;20438;-57
2021/10/04 11:02:59;;;;;;;3.03;0.90;;;;;;;;;;5120650;22;20484;-54
2021/10/04 11:05:44;;;;;;;4.30;1.50;;;;;;;;;;5034444;28;20437;-56
2021/10/04 11:08:14;;;;;;;2.10;0.97;;;;;;;;;;5033338;28;20448;-57
2021/10/04 11:10:56;;;;;;;2.63;1.30;;;;;;;;;;5034317;28;20539;-56
2021/10/04 11:13:24;;;;;;;1.77;1.23;;;;;;;;;;5033453;28;20547;-56
2021/10/04 11:15:52;;;;;;;2.40;1.10;;;;;;;;;;5033178;28;20941;-57
2021/10/04 11:18:20;;;;;;;2.03;1.43;;;;;;;;;;5033720;28;20518;-57
2021/10/04 11:20:47;;;;;;;3.60;1.13;;;;;;;;;;5033789;28;20503;-56
2021/10/04 11:23:17;;;;;;;1.67;1.03;;;;;;;;;;5033957;28;20837;-56
2021/10/04 11:25:45;;;;;;;5.13;1.00;;;;;;;;;;5033530;28;20433;-57
2021/10/04 11:28:13;;;;;;;2.37;1.07;;;;;;;;;;5033511;28;20525;-56
2021/10/04 11:30:53;;;;;;;2.00;1.10;;;;;;;;;;5033421;28;20472;-57
2021/10/04 11:33:20;;;;;;;3.37;1.10;;;;;;;;;;5033036;28;20487;-57
2021/10/04 11:35:57;;;;;;;3.87;1.57;;;;;;;;;;5033043;28;20457;-56
2021/10/04 11:38:25;;;;;;;5.17;1.33;;;;;;;;;;5033477;28;20575;-56
2021/10/04 11:40:53;;;;;;;1.73;0.97;;;;;;;;;;5032875;28;20445;-56
2021/10/04 11:43:20;;;;;;;3.00;1.10;;;;;;;;;;5033002;28;20465;-56
2021/10/04 11:45:48;;;;;;;2.23;1.50;;;;;;;;;;5033279;28;20452;-56
2021/10/04 11:48:28;;;;;;;2.50;1.43;;;;;;;;;;5033014;28;20995;-56
2021/10/04 11:50:56;;;;;;;2.97;1.13;;;;;;;;;;5033208;28;20461;-56
2021/10/04 11:53:23;;;;;;;2.97;1.20;;;;;;;;;;5032663;28;20469;-56
2021/10/04 11:56:02;;;;;;;1.73;1.00;;;;;;;;;;5032991;28;20503;-57
2021/10/04 11:58:29;;;;;;;2.50;0.90;;;;;;;;;;5032672;28;20449;-56
2021/10/04 12:00:56;;;;;;;2.70;1.00;;;;;;;;;;5032884;28;20448;-54
2021/10/04 12:03:27;;;;;;;2.80;1.27;;;;;;;;;;5032666;28;20523;-56
2021/10/04 12:05:54;;;;;;;3.20;1.43;;;;;;;;;;5033066;28;20425;-56
2021/10/04 12:08:22;;;;;;;5.00;1.30;;;;;;;;;;5032928;28;20445;-58
2021/10/04 12:10:54;;;;;;;5.30;2.10;;;;;;;;;;5032838;28;20483;-56
2021/10/04 12:13:24;;;;;;;3.47;1.07;;;;;;;;;;5032857;28;20548;-56
2021/10/04 12:15:52;;;;;;;1.90;1.20;;;;;;;;;;5032939;28;20900;-57
2021/10/04 12:18:20;;;;;;;3.57;1.80;;;;;;;;;;5033439;28;20552;-57
2021/10/04 12:20:48;;;;;;;4.17;1.57;;;;;;;;;;5032812;28;20449;-58
2021/10/04 12:23:20;;;;;;;1.77;1.10;;;;;;;;;;5032657;28;20522;-56
2021/10/04 12:25:48;;;;;;;2.60;1.27;;;;;;;;;;5032872;28;20449;-57
2021/10/04 12:28:18;;;;;;;2.83;0.90;;;;;;;;;;5032714;28;20952;-57
2021/10/04 12:30:47;;;;;;;1.80;1.07;;;;;;;;;;5036935;28;20465;-56
2021/10/04 12:33:15;;;;;;;2.17;1.20;;;;;;;;;;5036635;28;20519;-56
2021/10/04 12:35:42;;;;;;;3.80;0.87;;;;;;;;;;5036782;28;20494;-55
2021/10/04 12:38:13;;;;;;;2.73;1.10;;;;;;;;;;5036613;28;20453;-55
2021/10/04 12:40:45;;;;;;;2.83;1.20;;;;;;;;;;5036706;28;20437;-56
2021/10/04 12:43:14;;;;;;;1.93;1.33;;;;;;;;;;5036664;28;20464;-57
2021/10/04 12:45:41;;;;;;;3.83;1.13;;;;;;;;;;5036764;28;20445;-57
2021/10/04 12:48:16;;;;;;;2.53;1.30;;;;;;;;;;5036448;28;20494;-56
2021/10/04 12:50:44;;;;;;;3.87;1.20;;;;;;;;;;5036287;28;20543;-56
2021/10/04 12:53:12;;;;;;;4.00;1.27;;;;;;;;;;5035975;28;20460;-56
2021/10/04 12:55:46;;;;;;;4.40;1.10;;;;;;;;;;5036481;28;20444;-56
2021/10/04 12:58:13;;;;;;;3.90;1.10;;;;;;;;;;5035935;28;20483;-57
2021/10/04 13:00:40;;;;;;;4.50;1.00;;;;;;;;;;5036147;28;20436;-57
2021/10/04 13:03:07;;;;;;;2.03;0.77;;;;;;;;;;5036091;28;20473;-57
2021/10/04 13:05:36;;;;;;;2.90;1.00;;;;;;;;;;5036388;28;20433;-57
2021/10/04 13:08:03;;;;;;;3.37;1.77;;;;;;;;;;5036369;28;20486;-57
2021/10/04 13:10:31;;;;;;;3.17;1.00;;;;;;;;;;5035883;28;20485;-56
2021/10/04 13:13:00;;;;;;;1.53;0.90;;;;;;;;;;5035850;28;20514;-58
2021/10/04 13:15:28;;;;;;;2.00;1.23;;;;;;;;;;5035975;28;20971;-56
2021/10/04 13:17:55;;;;;;;4.10;1.50;;;;;;;;;;5035704;28;20440;-57
2021/10/04 13:20:22;;;;;;;1.37;0.70;;;;;;;;;;5036276;28;20498;-58
2021/10/04 13:22:51;;;;;;;2.67;0.87;;;;;;;;;;5035731;28;20457;-54
2021/10/04 13:25:18;;;;;;;2.57;1.37;;;;;;;;;;5035260;28;20526;-54
2021/10/04 13:27:46;;;;;;;6.43;1.10;;;;;;;;;;5035780;28;20457;-56
2021/10/04 13:30:13;;;;;;;6.10;1.10;;;;;;;;;;5035279;28;20480;-54
2021/10/04 13:32:41;;;;;;;9.37;1.90;;;;;;;;;;5035479;28;20445;-56
2021/10/04 13:35:08;;;;;;;4.57;1.40;;;;;;;;;;5035375;28;20460;-56
2021/10/04 13:37:36;;;;;;;1.73;0.80;;;;;;;;;;5035308;28;20550;-54
2021/10/04 13:40:05;;;;;;;2.67;0.80;;;;;;;;;;5034784;28;20839;-54
2021/10/04 13:42:37;;;;;;;1.97;1.20;;;;;;;;;;5035293;28;20445;-55
2021/10/04 13:45:05;;;;;;;5.87;1.00;;;;;;;;;;5035408;28;20477;-56
2021/10/04 13:47:32;;;;;;;1.30;0.80;;;;;;;;;;5035456;28;20489;-55
2021/10/04 13:50:02;;;;;;;2.63;0.70;;;;;;;;;;5035147;28;20564;-55
2021/10/04 13:52:30;;;;;;;1.80;0.90;;;;;;;;;;5035264;28;20453;-54
2021/10/04 13:54:58;;;;;;;2.50;1.07;;;;;;;;;;5034866;28;20552;-55
2021/10/04 13:57:27;;;;;;;3.93;1.00;;;;;;;;;;5035258;28;20532;-55
2021/10/04 13:59:55;;;;;;;1.83;1.03;;;;;;;;;;5035403;28;20491;-57
2021/10/04 14:02:22;;;;;;;2.27;1.10;;;;;;;;;;5035350;28;20488;-55
2021/10/04 14:04:49;;;;;;;1.80;0.77;;;;;;;;;;5035004;28;20481;-57
2021/10/04 14:07:17;;;;;;;2.67;0.83;;;;;;;;;;5034822;28;20533;-57
2021/10/04 14:09:44;;;;;;;3.47;1.10;;;;;;;;;;5034743;28;20476;-57
2021/10/04 14:12:11;;;;;;;1.47;0.77;;;;;;;;;;5034909;28;20448;-57
2021/10/04 14:14:40;;;;;;;3.00;1.10;;;;;;;;;;5034891;28;20473;-59
2021/10/04 14:17:07;;;;;;;1.63;0.87;;;;;;;;;;5034614;28;20867;-57
2021/10/04 14:19:34;;;;;;;3.00;1.30;;;;;;;;;;5034750;28;20965;-57
2021/10/04 14:22:02;;;;;;;4.10;1.30;;;;;;;;;;5035044;28;20441;-57
2021/10/04 14:24:29;;;;;;;1.57;1.20;;;;;;;;;;5034544;28;20465;-57
2021/10/04 14:26:56;;;;;;;3.40;0.80;;;;;;;;;;5035256;28;20495;-57
2021/10/04 14:29:24;;;;;;;4.13;0.90;;;;;;;;;;5034629;28;20933;-56
2021/10/04 14:31:53;;;;;;;1.80;1.20;;;;;;;;;;5034644;28;20437;-58
2021/10/04 14:34:21;;;;;;;2.20;1.00;;;;;;;;;;5034070;28;20834;-56
2021/10/04 14:36:48;;;;;;;2.47;1.43;;;;;;;;;;5034464;28;20453;-56
2021/10/04 14:39:16;;;;;;;1.80;0.90;;;;;;;;;;5033984;28;20999;-56
2021/10/04 14:41:43;;;;;;;4.07;2.27;;;;;;;;;;5034238;28;20499;-56
2021/10/04 14:44:11;;;;;;;3.97;0.90;;;;;;;;;;5033926;28;20897;-57
2021/10/04 14:46:38;;;;;;;2.97;1.53;;;;;;;;;;5034576;28;20507;-58
2021/10/04 14:49:07;;;;;;;1.97;1.30;;;;;;;;;;5034230;28;20445;-56
2021/10/04 14:51:34;;;;;;;2.33;0.90;;;;;;;;;;5032913;28;20546;-56
2021/10/04 14:54:01;;;;;;;4.63;0.87;;;;;;;;;;5033591;28;20875;-56